Time;durP1;ratioP1;P1;durP2;ratioP2;P2;SDS_P1;SDS_P2;PMS_P1;PMS_P2;Temp;Humidity;BMP_temperature;BMP_pressure;BME280_temperature;BME280_humidity;BME280_pressure;Samples;Min_cycle;Max_cycle;Signal;HPM_P1;HPM_P2
2023/12/07 00:01:43;;;;;;;;;;;;;;;0.90;100.00;101935.59;4999291;28;19926;-61
2023/12/07 00:04:09;;;;;;;;;;;;;;;0.86;100.00;101939.25;5001206;28;19956;-61
2023/12/07 00:06:34;;;;;;;;;;;;;;;0.83;100.00;101939.44;4996644;28;20072;-60
2023/12/07 00:09:00;;;;;;;;;;;;;;;0.80;100.00;101944.81;4998598;28;20641;-60
2023/12/07 00:11:26;;;;;;;;;;;;;;;0.77;100.00;101933.69;4998415;28;19926;-60
2023/12/07 00:13:51;;;;;;;;;;;;;;;0.73;100.00;101929.53;4994600;28;19932;-61
2023/12/07 00:16:16;;;;;;;;;;;;;;;0.70;100.00;101934.94;4999225;28;19918;-60
2023/12/07 00:18:41;;;;;;;;;;;;;;;0.66;100.00;101933.41;5000993;28;20112;-61
2023/12/07 00:21:10;;;;;;;;;;;;;;;0.63;100.00;101931.81;4997006;28;19964;-61
2023/12/07 00:23:36;;;;;;;;;;;;;;;0.58;100.00;101928.59;4996266;28;19924;-60
2023/12/07 00:26:02;;;;;;;;;;;;;;;0.51;100.00;101928.03;4985512;28;20405;-60
2023/12/07 00:28:27;;;;;;;;;;;;;;;0.45;100.00;101932.75;5001342;28;20344;-60
2023/12/07 00:30:53;;;;;;;;;;;;;;;0.40;100.00;101934.75;4994543;28;19917;-60
2023/12/07 00:33:18;;;;;;;;;;;;;;;0.41;100.00;101926.00;4997627;28;19929;-61
2023/12/07 00:35:43;;;;;;;;;;;;;;;0.37;100.00;101929.69;4991861;28;19918;-61
2023/12/07 00:38:09;;;;;;;;;;;;;;;0.36;100.00;101933.22;4993643;28;19917;-60
2023/12/07 00:40:36;;;;;;;;;;;;;;;0.36;100.00;101938.44;4996857;28;20444;-60
2023/12/07 00:43:02;;;;;;;;;;;;;;;0.29;100.00;101938.75;5002695;28;20514;-60
2023/12/07 00:45:27;;;;;;;;;;;;;;;0.20;100.00;101939.22;4998424;28;19918;-60
2023/12/07 00:47:52;;;;;;;;;;;;;;;0.15;100.00;101940.38;5001637;28;20397;-61
2023/12/07 00:50:17;;;;;;;;;;;;;;;0.13;100.00;101937.84;4991460;28;19917;-60
2023/12/07 00:52:42;;;;;;;;;;;;;;;0.13;100.00;101937.84;4992099;28;19922;-60
2023/12/07 00:55:08;;;;;;;;;;;;;;;0.15;100.00;101932.53;5000338;28;19988;-60
2023/12/07 00:57:33;;;;;;;;;;;;;;;0.15;100.00;101925.53;4998835;28;20019;-61
2023/12/07 00:59:58;;;;;;;;;;;;;;;0.16;100.00;101927.22;4995408;28;20314;-60
2023/12/07 01:02:24;;;;;;;;;;;;;;;0.16;100.00;101926.38;4992735;28;19917;-60
2023/12/07 01:04:49;;;;;;;;;;;;;;;0.15;100.00;101928.16;4996747;28;19917;-60
2023/12/07 01:07:14;;;;;;;;;;;;;;;0.17;100.00;101939.38;4993623;28;20016;-60
2023/12/07 01:09:39;;;;;;;;;;;;;;;0.16;100.00;101936.84;4995271;28;20422;-61
2023/12/07 01:12:05;;;;;;;;;;;;;;;0.13;100.00;101935.22;4995666;28;20454;-60
2023/12/07 01:14:30;;;;;;;;;;;;;;;0.12;100.00;101943.13;4995984;28;19960;-60
2023/12/07 01:16:56;;;;;;;;;;;;;;;0.07;100.00;101937.31;4994263;28;20027;-60
2023/12/07 01:19:21;;;;;;;;;;;;;;;-0.02;100.00;101947.25;4998570;28;19923;-60
2023/12/07 01:21:46;;;;;;;;;;;;;;;-0.08;100.00;101941.50;4999670;28;19924;-60
2023/12/07 01:24:12;;;;;;;;;;;;;;;-0.13;100.00;101946.94;4994218;28;19917;-60
2023/12/07 01:26:37;;;;;;;;;;;;;;;-0.20;100.00;101939.50;4992780;28;20295;-60
2023/12/07 01:29:02;;;;;;;;;;;;;;;-0.19;100.00;101949.00;4996330;28;20048;-60
2023/12/07 01:31:28;;;;;;;;;;;;;;;-0.23;100.00;101943.09;4995875;28;19925;-60
2023/12/07 01:33:53;;;;;;;;;;;;;;;-0.26;100.00;101934.56;4995611;28;19917;-60
2023/12/07 01:36:18;;;;;;;;;;;;;;;-0.27;100.00;101941.56;4980847;28;20290;-60
2023/12/07 01:38:43;;;;;;;;;;;;;;;-0.24;100.00;101948.41;4989210;28;20060;-60
2023/12/07 01:41:09;;;;;;;;;;;;;;;-0.24;100.00;101953.63;4996080;28;19978;-60
2023/12/07 01:43:34;;;;;;;;;;;;;;;-0.25;100.00;101957.16;5000266;28;19917;-60
2023/12/07 01:45:59;;;;;;;;;;;;;;;-0.25;100.00;101946.72;4992242;28;19990;-60
2023/12/07 01:48:29;;;;;;;;;;;;;;;-0.24;100.00;101951.00;5001056;28;19917;-60
2023/12/07 01:50:55;;;;;;;;;;;;;;;-0.21;100.00;101945.63;4995719;28;19917;-60
2023/12/07 01:53:21;;;;;;;;;;;;;;;-0.21;100.00;101946.47;4995677;28;19921;-60
2023/12/07 01:55:47;;;;;;;;;;;;;;;-0.23;100.00;101948.31;5001073;28;19921;-60
2023/12/07 01:58:12;;;;;;;;;;;;;;;-0.22;100.00;101946.56;4990039;28;20549;-60
2023/12/07 02:00:38;;;;;;;;;;;;;;;-0.22;100.00;101941.34;4996032;28;19918;-60
2023/12/07 02:03:04;;;;;;;;;;;;;;;-0.23;100.00;101944.88;4995073;28;20004;-60
2023/12/07 02:05:29;;;;;;;;;;;;;;;-0.26;100.00;101952.84;4993308;28;19960;-60
2023/12/07 02:07:54;;;;;;;;;;;;;;;-0.26;100.00;101950.25;4993993;28;19921;-60
2023/12/07 02:10:20;;;;;;;;;;;;;;;-0.29;100.00;101951.19;4994154;28;20811;-59
2023/12/07 02:12:46;;;;;;;;;;;;;;;-0.36;100.00;101953.28;5000230;28;20638;-61
2023/12/07 02:15:11;;;;;;;;;;;;;;;-0.40;100.00;101948.28;4999638;28;19917;-60
2023/12/07 02:17:40;;;;;;;;;;;;;;;-0.41;100.00;101946.56;5000580;28;19925;-61
2023/12/07 02:20:10;;;;;;;;;;;;;;;-0.42;100.00;101953.56;4995644;28;19971;-60
2023/12/07 02:22:39;;;;;;;;;;;;;;;-0.42;100.00;101953.56;4997515;28;19917;-60
2023/12/07 02:25:08;;;;;;;;;;;;;;;-0.41;100.00;101954.41;4994361;28;19925;-60
2023/12/07 02:27:40;;;;;;;;;;;;;;;-0.40;100.00;101951.72;4995171;28;19948;-60
2023/12/07 02:30:06;;;;;;;;;;;;;;;-0.39;100.00;101963.84;4996757;28;19921;-60
2023/12/07 02:32:32;;;;;;;;;;;;;;;-0.42;100.00;101958.78;4997827;28;19921;-60
2023/12/07 02:34:57;;;;;;;;;;;;;;;-0.43;100.00;101961.47;4999019;28;19956;-60
2023/12/07 02:37:23;;;;;;;;;;;;;;;-0.45;100.00;101963.31;5000096;28;20817;-60
2023/12/07 02:39:49;;;;;;;;;;;;;;;-0.48;100.00;101951.25;4998010;28;19963;-60
2023/12/07 02:42:15;;;;;;;;;;;;;;;-0.47;100.00;101950.34;4996179;28;19971;-60
2023/12/07 02:44:41;;;;;;;;;;;;;;;-0.43;100.00;101948.41;4996345;28;19917;-60
2023/12/07 02:47:06;;;;;;;;;;;;;;;-0.41;100.00;101944.81;4992240;28;20167;-60
2023/12/07 02:49:31;;;;;;;;;;;;;;;-0.40;100.00;101943.91;4993662;28;19917;-60
2023/12/07 02:51:56;;;;;;;;;;;;;;;-0.40;100.00;101932.63;4997712;28;19928;-60
2023/12/07 02:54:22;;;;;;;;;;;;;;;-0.36;100.00;101947.19;4991429;28;19921;-59
2023/12/07 02:56:48;;;;;;;;;;;;;;;-0.33;100.00;101941.84;4994628;28;19917;-60
2023/12/07 02:59:13;;;;;;;;;;;;;;;-0.29;100.00;101934.69;4995552;28;20105;-60
2023/12/07 03:01:38;;;;;;;;;;;;;;;-0.34;100.00;101935.75;4996814;28;20023;-60
2023/12/07 03:04:03;;;;;;;;;;;;;;;-0.27;100.00;101949.41;4996287;28;19952;-60
2023/12/07 03:06:29;;;;;;;;;;;;;;;-0.29;100.00;101943.38;4993230;28;19917;-60
2023/12/07 03:08:54;;;;;;;;;;;;;;;-0.35;100.00;101944.53;4998069;28;20002;-60
2023/12/07 03:11:19;;;;;;;;;;;;;;;-0.37;100.00;101953.34;4995241;28;19921;-60
2023/12/07 03:13:44;;;;;;;;;;;;;;;-0.38;100.00;101956.88;4997766;28;19914;-60
2023/12/07 03:16:09;;;;;;;;;;;;;;;-0.40;100.00;101959.56;4994809;28;19913;-59
2023/12/07 03:18:35;;;;;;;;;;;;;;;-0.47;100.00;101954.72;4996599;28;19917;-60
2023/12/07 03:21:01;;;;;;;;;;;;;;;-0.54;100.00;101953.31;5000265;28;20481;-60
2023/12/07 03:23:26;;;;;;;;;;;;;;;-0.62;100.00;101953.66;4996931;28;19924;-59
2023/12/07 03:25:52;;;;;;;;;;;;;;;-0.66;100.00;101968.59;4992645;28;19914;-60
2023/12/07 03:28:17;;;;;;;;;;;;;;;-0.71;100.00;101965.34;4989653;28;19922;-60
2023/12/07 03:30:42;;;;;;;;;;;;;;;-0.75;100.00;101971.63;4994799;28;20058;-60
2023/12/07 03:33:07;;;;;;;;;;;;;;;-0.80;100.00;101973.63;4999030;28;19928;-60
2023/12/07 03:35:33;;;;;;;;;;;;;;;-0.82;100.00;101974.59;4996757;28;20012;-60
2023/12/07 03:37:58;;;;;;;;;;;;;;;-0.84;100.00;101971.22;5000948;28;19917;-60
2023/12/07 03:40:23;;;;;;;;;;;;;;;-0.84;100.00;101966.00;4992646;28;20008;-60
2023/12/07 03:42:48;;;;;;;;;;;;;;;-0.88;100.00;101969.63;4996371;28;19929;-60
2023/12/07 03:45:14;;;;;;;;;;;;;;;-0.88;100.00;101965.28;4991875;28;19909;-61
2023/12/07 03:47:39;;;;;;;;;;;;;;;-0.90;100.00;101969.72;4995205;28;19917;-60
2023/12/07 03:50:05;;;;;;;;;;;;;;;-0.93;100.00;101975.06;4998696;28;20646;-60
2023/12/07 03:52:30;;;;;;;;;;;;;;;-0.95;100.00;101967.31;4992834;28;20067;-60
2023/12/07 03:54:55;;;;;;;;;;;;;;;-0.94;100.00;101975.97;4996997;28;19952;-60
2023/12/07 03:57:20;;;;;;;;;;;;;;;-0.94;100.00;101982.03;4996801;28;19913;-60
2023/12/07 03:59:46;;;;;;;;;;;;;;;-0.94;100.00;101984.66;4993929;28;20389;-60
2023/12/07 04:02:11;;;;;;;;;;;;;;;-0.95;100.00;101988.16;4997160;28;19917;-60
2023/12/07 04:04:38;;;;;;;;;;;;;;;-0.97;100.00;101994.38;5000913;28;19921;-60
2023/12/07 04:07:03;;;;;;;;;;;;;;;-1.00;100.00;101992.75;5004180;28;19913;-60
2023/12/07 04:09:29;;;;;;;;;;;;;;;-1.01;100.00;101995.44;4999770;28;19948;-60
2023/12/07 04:11:54;;;;;;;;;;;;;;;-1.03;100.00;101992.03;4998997;28;19921;-60
2023/12/07 04:14:19;;;;;;;;;;;;;;;-1.06;100.00;101986.97;4997579;28;19917;-60
2023/12/07 04:16:44;;;;;;;;;;;;;;;-1.06;100.00;101984.38;4996061;28;20036;-59
2023/12/07 04:19:09;;;;;;;;;;;;;;;-1.05;100.00;101986.06;4985403;28;20284;-60
2023/12/07 04:21:35;;;;;;;;;;;;;;;-1.05;100.00;101989.50;5001403;28;20435;-60
2023/12/07 04:24:00;;;;;;;;;;;;;;;-1.05;100.00;101992.13;4995454;28;19956;-60
2023/12/07 04:26:25;;;;;;;;;;;;;;;-1.05;100.00;101999.09;4999088;28;19957;-60
2023/12/07 04:28:50;;;;;;;;;;;;;;;-1.05;100.00;101993.88;4994098;28;19944;-60
2023/12/07 04:31:16;;;;;;;;;;;;;;;-1.04;100.00;101993.81;4994254;28;20015;-59
2023/12/07 04:33:41;;;;;;;;;;;;;;;-1.03;100.00;101992.88;5000728;28;20283;-60
2023/12/07 04:36:07;;;;;;;;;;;;;;;-1.01;100.00;101993.66;4998012;28;19932;-60
2023/12/07 04:38:32;;;;;;;;;;;;;;;-1.01;100.00;101998.88;5001128;28;19939;-60
2023/12/07 04:40:58;;;;;;;;;;;;;;;-1.00;100.00;101995.34;5000585;28;20570;-60
2023/12/07 04:43:23;;;;;;;;;;;;;;;-0.98;100.00;102003.09;5003789;28;19928;-60
2023/12/07 04:45:48;;;;;;;;;;;;;;;-0.95;100.00;102009.03;5003795;28;19975;-60
2023/12/07 04:48:13;;;;;;;;;;;;;;;-0.95;100.00;101998.59;5002499;28;19917;-60
2023/12/07 04:50:39;;;;;;;;;;;;;;;-0.94;100.00;101995.06;4992633;28;19921;-60
2023/12/07 04:53:04;;;;;;;;;;;;;;;-0.93;100.00;101999.38;5000090;28;19929;-60
2023/12/07 04:55:29;;;;;;;;;;;;;;;-0.93;100.00;101999.38;4997179;28;20011;-59
2023/12/07 04:57:54;;;;;;;;;;;;;;;-0.96;100.00;101996.91;4997932;28;20016;-60
2023/12/07 05:00:20;;;;;;;;;;;;;;;-0.93;100.00;101996.78;5000914;28;20256;-60
2023/12/07 05:02:45;;;;;;;;;;;;;;;-0.90;100.00;101993.19;5005140;28;19917;-60
2023/12/07 05:05:10;;;;;;;;;;;;;;;-0.93;100.00;101982.88;4993733;28;20350;-59
2023/12/07 05:07:35;;;;;;;;;;;;;;;-0.94;100.00;101983.81;4995282;28;19925;-60
2023/12/07 05:10:01;;;;;;;;;;;;;;;-0.94;100.00;101984.66;4994079;28;19917;-60
2023/12/07 05:12:27;;;;;;;;;;;;;;;-0.94;100.00;101976.81;5002446;28;19925;-59
2023/12/07 05:14:52;;;;;;;;;;;;;;;-0.96;100.00;101981.25;4997949;28;20399;-60
2023/12/07 05:17:18;;;;;;;;;;;;;;;-0.97;100.00;101982.19;4996186;28;19914;-60
2023/12/07 05:19:44;;;;;;;;;;;;;;;-0.95;100.00;101980.34;4993393;28;19965;-60
2023/12/07 05:22:09;;;;;;;;;;;;;;;-0.91;100.00;101977.59;4996833;28;19918;-61
2023/12/07 05:24:35;;;;;;;;;;;;;;;-0.92;100.00;101987.19;4992462;28;19979;-60
2023/12/07 05:27:00;;;;;;;;;;;;;;;-0.92;100.00;101979.38;4998052;28;20581;-60
2023/12/07 05:29:25;;;;;;;;;;;;;;;-0.92;100.00;101987.19;4998598;28;19921;-60
2023/12/07 05:31:51;;;;;;;;;;;;;;;-0.92;100.00;101971.53;4992596;28;19928;-59
2023/12/07 05:34:17;;;;;;;;;;;;;;;-0.90;100.00;101966.25;4997682;28;19925;-60
2023/12/07 05:36:42;;;;;;;;;;;;;;;-0.90;100.00;101958.44;4999434;28;19917;-60
2023/12/07 05:39:07;;;;;;;;;;;;;;;-0.87;100.00;101964.34;4999155;28;19928;-60
2023/12/07 05:41:33;;;;;;;;;;;;;;;-0.83;100.00;101970.31;4998607;28;19926;-60
2023/12/07 05:43:58;;;;;;;;;;;;;;;-0.83;100.00;101960.72;4992488;28;20008;-60
2023/12/07 05:46:23;;;;;;;;;;;;;;;-0.87;100.00;101964.34;4994156;28;19922;-59
2023/12/07 05:48:48;;;;;;;;;;;;;;;-0.91;100.00;101957.59;4985971;28;19929;-60
2023/12/07 05:51:14;;;;;;;;;;;;;;;-0.93;100.00;101960.25;5001492;28;20554;-60
2023/12/07 05:53:40;;;;;;;;;;;;;;;-0.93;100.00;101962.88;4993867;28;19924;-60
2023/12/07 05:56:05;;;;;;;;;;;;;;;-0.91;100.00;101952.38;5000629;28;19917;-60
2023/12/07 05:58:30;;;;;;;;;;;;;;;-0.91;100.00;101954.97;4992781;28;20288;-60
2023/12/07 06:00:56;;;;;;;;;;;;;;;-0.90;100.00;101961.03;4996385;28;19937;-60
2023/12/07 06:03:21;;;;;;;;;;;;;;;-0.90;100.00;101950.59;4999082;28;20558;-60
2023/12/07 06:05:46;;;;;;;;;;;;;;;-0.87;100.00;101958.28;4991069;28;19982;-60
2023/12/07 06:08:12;;;;;;;;;;;;;;;-0.88;100.00;101957.44;4996791;28;19917;-60
2023/12/07 06:10:38;;;;;;;;;;;;;;;-0.87;100.00;101963.50;4995727;28;19921;-60
2023/12/07 06:13:04;;;;;;;;;;;;;;;-0.87;100.00;101960.91;5001812;28;19959;-60
2023/12/07 06:15:29;;;;;;;;;;;;;;;-0.88;100.00;101967.03;5001807;28;19972;-60
2023/12/07 06:17:55;;;;;;;;;;;;;;;-0.89;100.00;101965.34;5003847;28;19959;-60
2023/12/07 06:20:20;;;;;;;;;;;;;;;-0.88;100.00;101965.28;5002141;28;19917;-60
2023/12/07 06:22:45;;;;;;;;;;;;;;;-0.86;100.00;101966.06;5003120;28;20617;-60
2023/12/07 06:25:11;;;;;;;;;;;;;;;-0.82;100.00;101977.22;5001689;28;20531;-60
2023/12/07 06:27:36;;;;;;;;;;;;;;;-0.81;100.00;101984.13;5001084;28;20666;-59
2023/12/07 06:30:02;;;;;;;;;;;;;;;-0.79;100.00;101980.53;5002468;28;19976;-60
2023/12/07 06:32:27;;;;;;;;;;;;;;;-0.77;100.00;101981.28;4998089;28;20024;-59
2023/12/07 06:34:52;;;;;;;;;;;;;;;-0.74;100.00;101975.09;5000926;28;20008;-60
2023/12/07 06:37:20;;;;;;;;;;;;;;;-0.70;100.00;101968.81;4996847;28;20020;-60
2023/12/07 06:39:45;;;;;;;;;;;;;;;-0.65;100.00;101962.47;4998078;28;19913;-60
2023/12/07 06:42:10;;;;;;;;;;;;;;;-0.64;100.00;101961.53;4997838;28;19917;-60
2023/12/07 06:44:35;;;;;;;;;;;;;;;-0.59;100.00;101958.72;5002214;28;19917;-60
2023/12/07 06:47:04;;;;;;;;;;;;;;;-0.56;100.00;101953.38;4999560;28;19917;-60
2023/12/07 06:49:29;;;;;;;;;;;;;;;-0.58;100.00;101946.53;4998924;28;20068;-59
2023/12/07 06:51:54;;;;;;;;;;;;;;;-0.60;100.00;101950.97;4998633;28;20043;-60
2023/12/07 06:54:20;;;;;;;;;;;;;;;-0.63;100.00;101944.97;4999111;28;19953;-60
2023/12/07 06:56:46;;;;;;;;;;;;;;;-0.59;100.00;101937.84;4999523;28;19979;-60
2023/12/07 06:59:11;;;;;;;;;;;;;;;-0.55;100.00;101946.41;5001182;28;19948;-60
2023/12/07 07:01:37;;;;;;;;;;;;;;;-0.52;100.00;101935.81;4995603;28;20302;-60
2023/12/07 07:04:02;;;;;;;;;;;;;;;-0.49;100.00;101928.69;4999370;28;20349;-60
2023/12/07 07:06:28;;;;;;;;;;;;;;;-0.43;100.00;101930.16;4996670;28;19922;-60
2023/12/07 07:08:53;;;;;;;;;;;;;;;-0.41;100.00;101934.38;4993193;28;19972;-60
2023/12/07 07:11:18;;;;;;;;;;;;;;;-0.38;100.00;101933.38;4996372;28;19917;-60
2023/12/07 07:13:43;;;;;;;;;;;;;;;-0.37;100.00;101940.28;4998197;28;19921;-60
2023/12/07 07:16:09;;;;;;;;;;;;;;;-0.33;100.00;101945.28;5000817;28;20630;-60
2023/12/07 07:18:35;;;;;;;;;;;;;;;-0.34;100.00;101948.81;4998436;28;20401;-61
2023/12/07 07:21:00;;;;;;;;;;;;;;;-0.35;100.00;101946.28;4998690;28;20011;-60
2023/12/07 07:23:26;;;;;;;;;;;;;;;-0.41;100.00;101944.81;4996694;28;19917;-60
2023/12/07 07:25:51;;;;;;;;;;;;;;;-0.40;100.00;101945.66;4995369;28;19928;-60
2023/12/07 07:28:16;;;;;;;;;;;;;;;-0.38;100.00;101960.31;4995180;28;20453;-60
2023/12/07 07:30:41;;;;;;;;;;;;;;;-0.36;100.00;101968.06;4997773;28;19972;-60
2023/12/07 07:33:06;;;;;;;;;;;;;;;-0.36;100.00;101976.75;4998865;28;19932;-61
2023/12/07 07:35:32;;;;;;;;;;;;;;;-0.39;100.00;101969.06;4999931;28;19921;-60
2023/12/07 07:37:57;;;;;;;;;;;;;;;-0.42;100.00;101969.22;5000858;28;19921;-60
2023/12/07 07:40:22;;;;;;;;;;;;;;;-0.46;100.00;101965.06;4999771;28;19979;-60
2023/12/07 07:42:47;;;;;;;;;;;;;;;-0.47;100.00;101963.38;5002156;28;19975;-60
2023/12/07 07:45:12;;;;;;;;;;;;;;;-0.44;100.00;101952.78;4997959;28;19967;-60
2023/12/07 07:47:38;;;;;;;;;;;;;;;-0.47;100.00;101939.91;4995901;28;19960;-60
2023/12/07 07:50:05;;;;;;;;;;;;;;;-0.39;100.00;101960.41;4996375;28;19968;-60
2023/12/07 07:52:31;;;;;;;;;;;;;;;-0.38;100.00;101962.94;4997807;28;19929;-60
2023/12/07 07:54:56;;;;;;;;;;;;;;;-0.39;100.00;101968.22;4994788;28;19917;-60
2023/12/07 07:57:21;;;;;;;;;;;;;;;-0.45;100.00;101977.19;4996342;28;19964;-60
2023/12/07 07:59:47;;;;;;;;;;;;;;;-0.45;100.00;101971.97;4995960;28;20418;-60
2023/12/07 08:02:12;;;;;;;;;;;;;;;-0.44;100.00;101967.59;4998152;28;19924;-60
2023/12/07 08:04:37;;;;;;;;;;;;;;;-0.45;100.00;101963.31;4997196;28;19918;-60
2023/12/07 08:07:02;;;;;;;;;;;;;;;-0.44;100.00;101959.78;4997394;28;19965;-60
2023/12/07 08:09:28;;;;;;;;;;;;;;;-0.41;100.00;101954.41;5000229;28;19917;-59
2023/12/07 08:11:53;;;;;;;;;;;;;;;-0.36;100.00;101949.81;5002440;28;19921;-60
2023/12/07 08:14:18;;;;;;;;;;;;;;;-0.34;100.00;101946.22;4998358;28;19921;-60
2023/12/07 08:16:44;;;;;;;;;;;;;;;-0.33;100.00;101947.91;4994114;28;19925;-60
2023/12/07 08:19:09;;;;;;;;;;;;;;;-0.29;100.00;101950.34;5000550;28;19948;-60
2023/12/07 08:21:34;;;;;;;;;;;;;;;-0.26;100.00;101956.31;5003434;28;19921;-60
2023/12/07 08:24:00;;;;;;;;;;;;;;;-0.24;100.00;101951.84;4995782;28;20557;-60
2023/12/07 08:26:27;;;;;;;;;;;;;;;-0.19;100.00;101946.41;4997867;28;20304;-60
2023/12/07 08:28:53;;;;;;;;;;;;;;;-0.13;100.00;101956.53;5006384;28;19913;-59
2023/12/07 08:31:19;;;;;;;;;;;;;;;-0.11;100.00;101955.53;5010740;28;19921;-60
2023/12/07 08:33:44;;;;;;;;;;;;;;;-0.08;100.00;101962.38;4987923;28;19919;-60
2023/12/07 08:36:10;;;;;;;;;;;;;;;-0.05;100.00;101968.28;4993370;28;19921;-60
2023/12/07 08:38:35;;;;;;;;;;;;;;;-0.03;100.00;101955.16;5003249;28;19913;-60
2023/12/07 08:41:00;;;;;;;;;;;;;;;-0.02;100.00;101957.69;5004553;28;19917;-61
2023/12/07 08:43:28;;;;;;;;;;;;;;;0.00;100.00;101960.25;5004143;28;19924;-60
2023/12/07 08:45:53;;;;;;;;;;;;;;;0.03;100.00;101964.50;5002412;28;19914;-60
2023/12/07 08:48:21;;;;;;;;;;;;;;;0.06;100.00;101957.34;5001471;28;19924;-61
2023/12/07 08:50:46;;;;;;;;;;;;;;;0.10;100.00;101964.09;5003197;28;19925;-60
2023/12/07 08:53:11;;;;;;;;;;;;;;;0.14;100.00;101970.84;5005825;28;19921;-60
2023/12/07 08:55:37;;;;;;;;;;;;;;;0.16;100.00;101963.78;5004633;28;20584;-60
2023/12/07 08:58:04;;;;;;;;;;;;;;;0.18;100.00;101964.56;5001933;28;19921;-61
2023/12/07 09:00:30;;;;;;;;;;;;;;;0.20;100.00;101954.03;4997447;28;19924;-60
2023/12/07 09:02:55;;;;;;;;;;;;;;;0.23;100.00;101961.72;5003578;28;19952;-60
2023/12/07 09:05:21;;;;;;;;;;;;;;;0.25;100.00;101954.66;5001097;28;20421;-60
2023/12/07 09:07:46;;;;;;;;;;;;;;;0.25;100.00;101962.47;4995344;28;20028;-60
2023/12/07 09:10:11;;;;;;;;;;;;;;;0.25;100.00;101950.25;4999853;28;19972;-60
2023/12/07 09:12:37;;;;;;;;;;;;;;;0.29;100.00;101951.81;4996500;28;19965;-60
2023/12/07 09:15:03;;;;;;;;;;;;;;;0.30;100.00;101939.63;4997977;28;19917;-60
2023/12/07 09:17:28;;;;;;;;;;;;;;;0.34;100.00;101935.06;4996394;28;20434;-60
2023/12/07 09:19:54;;;;;;;;;;;;;;;0.37;100.00;101938.38;4996102;28;20298;-60
2023/12/07 09:22:19;;;;;;;;;;;;;;;0.40;100.00;101935.59;4998871;28;19921;-60
2023/12/07 09:24:46;;;;;;;;;;;;;;;0.44;100.00;101942.34;5000760;28;19917;-61
2023/12/07 09:27:11;;;;;;;;;;;;;;;0.48;100.00;101950.88;5002119;28;19941;-59
2023/12/07 09:29:37;;;;;;;;;;;;;;;0.51;100.00;101942.88;5000173;28;19918;-61
2023/12/07 09:32:02;;;;;;;;;;;;;;;0.54;100.00;101945.31;4999132;28;19944;-60
2023/12/07 09:34:27;;;;;;;;;;;;;;;0.58;100.00;101950.34;4992245;28;19921;-61
2023/12/07 09:37:05;;;;;;;;;;;;;;;0.59;100.00;101944.19;5000015;28;19923;-60
2023/12/07 09:39:30;;;;;;;;;;;;;;;0.63;100.00;101944.88;5001642;28;20016;-61
2023/12/07 09:41:56;;;;;;;;;;;;;;;0.66;100.00;101938.63;5003515;28;19928;-60
2023/12/07 09:44:21;;;;;;;;;;;;;;;0.65;100.00;101935.19;5002689;28;19917;-60
2023/12/07 09:46:46;;;;;;;;;;;;;;;0.64;100.00;101924.81;5003498;28;20058;-60
2023/12/07 09:49:11;;;;;;;;;;;;;;;0.68;100.00;101921.09;4996301;28;20370;-60
2023/12/07 09:51:37;;;;;;;;;;;;;;;0.71;100.00;101923.56;4998439;28;20026;-60
2023/12/07 09:54:02;;;;;;;;;;;;;;;0.73;100.00;101930.38;5001142;28;19960;-60
2023/12/07 09:56:28;;;;;;;;;;;;;;;0.76;100.00;101919.75;4996876;28;19925;-60
2023/12/07 09:58:53;;;;;;;;;;;;;;;0.79;100.00;101916.16;5000603;28;19928;-60
2023/12/07 10:01:18;;;;;;;;;;;;;;;0.81;100.00;101919.53;4996753;28;19917;-61
2023/12/07 10:03:46;;;;;;;;;;;;;;;0.84;100.00;101907.13;4999888;28;19925;-60
2023/12/07 10:06:12;;;;;;;;;;;;;;;0.85;100.00;101890.50;4998632;28;20394;-60
2023/12/07 10:08:37;;;;;;;;;;;;;;;0.85;100.00;101890.50;4993047;28;19984;-60
2023/12/07 10:11:05;;;;;;;;;;;;;;;0.90;100.00;101885.91;4993737;28;20332;-60
2023/12/07 10:13:31;;;;;;;;;;;;;;;0.93;100.00;101882.28;4993220;28;20422;-61
2023/12/07 10:16:25;;;;;;;;;;;;;;;0.96;100.00;101876.88;4997026;28;19913;-60
2023/12/07 10:18:50;;;;;;;;;;;;;;;1.03;100.00;101880.84;4989296;28;19914;-60
2023/12/07 10:21:16;;;;;;;;;;;;;;;1.04;100.00;101873.84;5001137;28;19920;-60
2023/12/07 10:23:43;;;;;;;;;;;;;;;1.11;100.00;101864.72;5002505;28;20669;-60
2023/12/07 10:26:10;;;;;;;;;;;;;;;1.13;100.00;101866.31;5002354;28;19918;-61
2023/12/07 10:28:36;;;;;;;;;;;;;;;1.18;100.00;101856.47;4992218;28;19917;-61
2023/12/07 10:31:02;;;;;;;;;;;;;;;1.20;100.00;101846.75;4990360;28;19982;-60
2023/12/07 10:33:27;;;;;;;;;;;;;;;1.26;100.00;101848.19;4991196;28;20349;-60
2023/12/07 10:35:52;;;;;;;;;;;;;;;1.31;100.00;101842.69;4996716;28;19913;-60
2023/12/07 10:38:19;;;;;;;;;;;;;;;1.37;100.00;101837.94;4999989;28;19968;-60
2023/12/07 10:40:46;;;;;;;;;;;;;;;1.44;100.00;101836.66;4996437;28;19948;-60
2023/12/07 10:43:12;;;;;;;;;;;;;;;1.47;100.00;101836.50;5003460;28;19917;-60
2023/12/07 10:45:37;;;;;;;;;;;;;;;1.52;100.00;101831.84;5001199;28;19921;-60
2023/12/07 10:48:05;;;;;;;;;;;;;;;1.60;100.00;101825.31;5002588;28;20395;-60
2023/12/07 10:50:31;;;;;;;;;;;;;;;1.68;100.00;101825.72;4997399;28;19920;-61
2023/12/07 10:52:59;;;;;;;;;;;;;;;1.73;100.00;101814.03;5003324;28;19971;-60
2023/12/07 10:55:28;;;;;;;;;;;;;;;1.80;100.00;101806.69;4997866;28;19917;-61
2023/12/07 10:57:54;;;;;;;;;;;;;;;1.88;100.00;101822.78;4999376;28;20312;-61
2023/12/07 11:00:23;;;;;;;;;;;;;;;1.88;100.00;101812.31;4995693;28;20355;-60
2023/12/07 11:02:49;;;;;;;;;;;;;;;1.94;100.00;101821.56;5002550;28;19943;-61
2023/12/07 11:05:14;;;;;;;;;;;;;;;1.99;100.00;101809.88;4997194;28;20383;-60
2023/12/07 11:08:00;;;;;;;;;;;;;;;1.98;100.00;101809.97;4994338;28;19918;-60
2023/12/07 11:10:39;;;;;;;;;;;;;;;1.98;100.00;101802.94;4993851;28;19917;-61
2023/12/07 11:13:24;;;;;;;;;;;;;;;2.05;100.00;101806.06;5001348;28;20738;-61
2023/12/07 11:15:50;;;;;;;;;;;;;;;2.10;100.00;101796.16;4999050;28;19917;-60
2023/12/07 11:18:15;;;;;;;;;;;;;;;2.15;100.00;101796.72;5003367;28;20471;-60
2023/12/07 11:20:42;;;;;;;;;;;;;;;2.16;100.00;101778.28;5002289;28;20539;-60
2023/12/07 11:23:08;;;;;;;;;;;;;;;2.22;100.00;101770.97;5006219;28;20560;-60
2023/12/07 11:25:33;;;;;;;;;;;;;;;2.29;100.00;101769.66;5002428;28;19917;-60
2023/12/07 11:28:03;;;;;;;;;;;;;;;2.34;100.00;101757.13;5000532;28;20099;-61
2023/12/07 11:30:30;;;;;;;;;;;;;;;2.39;100.00;101752.44;4997707;28;20343;-60
2023/12/07 11:32:55;;;;;;;;;;;;;;;2.44;100.00;101745.13;4993612;28;19964;-60
2023/12/07 11:35:20;;;;;;;;;;;;;;;2.54;100.00;101748.84;4995244;28;19964;-60
2023/12/07 11:38:06;;;;;;;;;;;;;;;2.64;100.00;101746.50;5004350;28;19917;-60
2023/12/07 11:40:32;;;;;;;;;;;;;;;2.66;100.00;101747.25;4994720;28;19921;-60
2023/12/07 11:42:58;;;;;;;;;;;;;;;2.73;100.00;101741.50;4999591;28;20056;-60
2023/12/07 11:45:39;;;;;;;;;;;;;;;2.82;100.00;101745.31;5004320;28;20307;-60
2023/12/07 11:48:08;;;;;;;;;;;;;;;2.85;100.00;101752.16;5003292;28;19921;-61
2023/12/07 11:50:34;;;;;;;;;;;;;;;2.83;100.00;101741.75;5002899;28;20000;-61
2023/12/07 11:52:59;;;;;;;;;;;;;;;2.88;100.00;101734.41;5004654;28;20327;-60
2023/12/07 11:55:24;;;;;;;;;;;;;;;2.92;100.00;101724.59;5003862;28;19924;-61
2023/12/07 11:57:49;;;;;;;;;;;;;;;3.05;100.00;101730.72;5002444;28;19918;-60
2023/12/07 12:00:15;;;;;;;;;;;;;;;3.26;100.00;101725.84;5003375;28;19917;-60
2023/12/07 12:02:40;;;;;;;;;;;;;;;3.40;100.00;101718.72;5000912;28;19964;-60
2023/12/07 12:05:05;;;;;;;;;;;;;;;3.53;100.00;101721.38;4999290;28;20298;-61
2023/12/07 12:07:31;;;;;;;;;;;;;;;3.63;100.00;101711.09;5003620;28;19918;-61
2023/12/07 12:09:56;;;;;;;;;;;;;;;3.65;100.00;101699.53;5000924;28;20371;-60
2023/12/07 12:12:21;;;;;;;;;;;;;;;3.77;100.00;101700.50;5000092;28;19921;-61
2023/12/07 12:14:46;;;;;;;;;;;;;;;3.88;100.00;101700.56;5001994;28;19921;-60
2023/12/07 12:17:14;;;;;;;;;;;;;;;3.97;100.00;101704.34;5000679;28;19991;-60
2023/12/07 12:19:39;;;;;;;;;;;;;;;4.02;100.00;101691.72;4995370;28;19948;-61
2023/12/07 12:22:06;;;;;;;;;;;;;;;4.14;100.00;101682.16;4994936;28;19918;-60
2023/12/07 12:24:31;;;;;;;;;;;;;;;4.19;100.00;101675.63;4998044;28;19942;-60